createdAt,value
2022-12-17T00:01:57.628Z,16.60
2022-12-17T00:04:42.890Z,16.60
2022-12-17T00:07:28.399Z,18.93
2022-12-17T00:10:15.748Z,17.53
2022-12-17T00:13:00.938Z,17.97
2022-12-17T00:15:46.553Z,18.30
2022-12-17T00:18:31.849Z,19.30
2022-12-17T00:21:19.409Z,19.50
2022-12-17T00:24:05.698Z,18.70
2022-12-17T00:26:51.647Z,20.10
2022-12-17T00:29:37.673Z,19.43
2022-12-17T00:32:23.773Z,18.37
2022-12-17T00:35:09.249Z,17.97
2022-12-17T00:37:55.549Z,19.20
2022-12-17T00:40:41.908Z,17.53
2022-12-17T00:43:32.203Z,17.77
2022-12-17T00:46:18.206Z,19.03
2022-12-17T00:49:04.107Z,18.87
2022-12-17T00:51:49.991Z,17.60
2022-12-17T00:54:35.185Z,17.87
2022-12-17T00:57:20.650Z,15.70
2022-12-17T01:00:05.954Z,16.87
2022-12-17T01:02:52.187Z,16.87
2022-12-17T01:05:37.872Z,17.57
2022-12-17T01:08:32.682Z,18.73
2022-12-17T01:11:25.180Z,18.00
2022-12-17T01:14:12.067Z,17.97
2022-12-17T01:16:57.448Z,16.60
2022-12-17T01:19:43.096Z,17.03
2022-12-17T01:22:28.600Z,17.27
2022-12-17T01:25:13.983Z,18.33
2022-12-17T01:27:59.189Z,19.27
2022-12-17T01:30:44.604Z,16.83
2022-12-17T01:33:30.696Z,16.77
2022-12-17T01:36:17.572Z,17.13
2022-12-17T01:39:03.216Z,17.80
2022-12-17T01:41:48.809Z,18.23
2022-12-17T01:45:02.143Z,19.00
2022-12-17T01:47:56.752Z,18.13
2022-12-17T01:50:47.471Z,17.20
2022-12-17T01:53:36.630Z,16.70
2022-12-17T01:56:24.068Z,16.40
2022-12-17T01:59:09.513Z,17.20
2022-12-17T02:01:55.072Z,17.00
2022-12-17T02:04:40.723Z,17.17
2022-12-17T02:08:23.851Z,16.37
2022-12-17T02:11:22.610Z,16.37
2022-12-17T02:14:30.805Z,17.33
2022-12-17T02:17:21.585Z,17.47
2022-12-17T02:20:57.542Z,16.20
2022-12-17T02:24:27.758Z,17.80
2022-12-17T02:27:20.547Z,16.17
2022-12-17T02:30:13.125Z,17.50
2022-12-17T02:33:03.376Z,17.47
2022-12-17T02:35:55.102Z,16.73
2022-12-17T02:38:46.013Z,16.03
2022-12-17T02:41:50.683Z,14.77
2022-12-17T02:44:39.420Z,15.63
2022-12-17T02:47:34.774Z,15.60
2022-12-17T02:50:20.106Z,14.63
2022-12-17T02:53:07.612Z,16.33
2022-12-17T02:55:54.576Z,15.27
2022-12-17T02:58:40.644Z,16.07
2022-12-17T03:01:29.398Z,16.33
2022-12-17T03:04:14.800Z,14.40
2022-12-17T03:07:01.857Z,16.53
2022-12-17T03:09:50.268Z,16.07
2022-12-17T03:12:35.642Z,15.57
2022-12-17T03:15:22.720Z,16.40
2022-12-17T03:18:22.143Z,16.27
2022-12-17T03:21:14.775Z,16.10
2022-12-17T03:24:01.599Z,16.23
2022-12-17T03:26:47.120Z,16.10
2022-12-17T03:29:33.120Z,15.67
2022-12-17T03:32:18.649Z,17.00
2022-12-17T03:35:03.764Z,16.80
2022-12-17T03:37:49.985Z,16.83
2022-12-17T03:40:37.791Z,16.23
2022-12-17T03:43:28.074Z,16.97
2022-12-17T03:46:14.321Z,17.43
2022-12-17T03:49:06.181Z,15.47
2022-12-17T03:51:54.070Z,15.17
2022-12-17T03:54:39.569Z,15.83
2022-12-17T03:57:25.161Z,14.70
2022-12-17T04:00:10.349Z,15.97
2022-12-17T04:02:59.320Z,15.13
2022-12-17T04:05:44.728Z,16.27
2022-12-17T04:08:30.314Z,16.23
2022-12-17T04:11:15.842Z,17.37
2022-12-17T04:14:01.319Z,17.20
2022-12-17T04:16:46.756Z,16.50
2022-12-17T04:19:32.642Z,18.27
2022-12-17T04:22:18.212Z,16.73
2022-12-17T04:25:03.734Z,16.73
2022-12-17T04:27:48.880Z,17.10
2022-12-17T04:30:34.760Z,17.70
2022-12-17T04:33:21.669Z,17.47
2022-12-17T04:36:14.731Z,17.27
2022-12-17T04:39:00.029Z,17.30
2022-12-17T04:41:45.468Z,19.10
2022-12-17T04:44:31.506Z,16.73
2022-12-17T04:47:19.580Z,17.00
2022-12-17T04:50:05.063Z,17.90
2022-12-17T04:52:50.311Z,18.00
2022-12-17T04:55:35.837Z,17.73
2022-12-17T04:58:23.910Z,17.83
2022-12-17T05:01:13.883Z,16.87
2022-12-17T05:03:59.251Z,17.63
2022-12-17T05:06:45.188Z,17.87
2022-12-17T05:09:30.355Z,18.13
2022-12-17T05:12:16.015Z,17.50
2022-12-17T05:15:01.246Z,17.20
2022-12-17T05:17:46.470Z,16.37
2022-12-17T05:20:32.340Z,16.60
2022-12-17T05:23:25.160Z,17.60
2022-12-17T05:26:24.030Z,17.73
2022-12-17T05:29:15.569Z,17.83
2022-12-17T05:32:01.110Z,18.27
2022-12-17T05:34:46.297Z,16.87
2022-12-17T05:37:31.774Z,17.33
2022-12-17T05:40:17.482Z,16.37
2022-12-17T05:43:24.004Z,15.83
2022-12-17T05:46:10.511Z,16.47
2022-12-17T05:48:55.845Z,18.77
2022-12-17T05:51:41.519Z,17.77
2022-12-17T05:54:27.122Z,18.90
2022-12-17T05:57:13.610Z,19.70
2022-12-17T05:59:59.235Z,19.20
2022-12-17T06:02:45.297Z,18.70
2022-12-17T06:05:32.265Z,19.43
2022-12-17T06:08:26.245Z,19.63
2022-12-17T06:11:12.313Z,19.43
2022-12-17T06:13:57.688Z,19.73
2022-12-17T06:16:43.399Z,19.50
2022-12-17T06:19:28.777Z,20.50
2022-12-17T06:22:14.353Z,21.03
2022-12-17T06:24:59.457Z,20.27
2022-12-17T06:27:45.029Z,24.87
2022-12-17T06:30:31.217Z,22.83
2022-12-17T06:33:30.316Z,23.07
2022-12-17T06:36:22.054Z,22.00
2022-12-17T06:39:08.571Z,23.70
2022-12-17T06:41:58.954Z,24.80
2022-12-17T06:44:49.306Z,22.03
2022-12-17T06:47:35.088Z,21.97
2022-12-17T06:50:20.763Z,20.93
2022-12-17T06:53:06.493Z,23.80
2022-12-17T06:55:52.097Z,23.00
2022-12-17T06:58:37.297Z,24.00
2022-12-17T07:01:22.680Z,22.30
2022-12-17T07:04:08.088Z,23.33
2022-12-17T07:06:53.544Z,23.97
2022-12-17T07:09:39.037Z,22.77
2022-12-17T07:12:24.925Z,23.50
2022-12-17T07:15:10.379Z,23.27
2022-12-17T07:17:55.747Z,24.07
2022-12-17T07:20:41.202Z,30.33
2022-12-17T07:23:27.436Z,26.10
2022-12-17T07:26:12.978Z,26.60
2022-12-17T07:28:58.461Z,27.07
2022-12-17T07:31:44.228Z,26.97
2022-12-17T07:34:29.467Z,27.47
2022-12-17T07:37:20.194Z,30.60
2022-12-17T07:40:06.412Z,28.03
2022-12-17T07:42:52.126Z,25.43
2022-12-17T07:45:37.888Z,29.30
2022-12-17T07:48:23.731Z,30.13
2022-12-17T07:51:10.041Z,28.37
2022-12-17T07:53:55.270Z,25.17
2022-12-17T07:56:40.892Z,27.63
2022-12-17T07:59:26.460Z,27.13
2022-12-17T08:02:15.274Z,26.03
2022-12-17T08:05:01.150Z,28.10
2022-12-17T08:07:46.624Z,26.47
2022-12-17T08:10:32.327Z,26.07
2022-12-17T08:13:20.752Z,28.90
2022-12-17T08:16:07.470Z,27.80
2022-12-17T08:18:52.784Z,37.90
2022-12-17T08:21:38.372Z,36.53
2022-12-17T08:24:23.996Z,32.83
2022-12-17T08:27:09.491Z,37.67
2022-12-17T08:29:54.978Z,43.43
2022-12-17T08:32:41.583Z,37.37
2022-12-17T08:35:27.476Z,29.80
2022-12-17T08:38:19.896Z,28.13
2022-12-17T08:41:05.419Z,28.33
2022-12-17T08:43:51.075Z,26.57
2022-12-17T08:46:36.623Z,26.20
2022-12-17T08:49:22.076Z,25.60
2022-12-17T08:52:07.721Z,32.60
2022-12-17T08:54:53.226Z,29.63
2022-12-17T08:57:38.837Z,36.23
2022-12-17T09:00:25.257Z,30.37
2022-12-17T09:03:19.765Z,28.07
2022-12-17T09:06:05.769Z,36.97
2022-12-17T09:08:51.495Z,30.97
2022-12-17T09:11:36.758Z,26.47
2022-12-17T09:14:22.026Z,27.83
2022-12-17T09:17:07.409Z,30.47
2022-12-17T09:19:52.804Z,31.23
2022-12-17T09:22:38.305Z,32.40
2022-12-17T09:25:24.456Z,32.70
2022-12-17T09:28:09.981Z,35.83
2022-12-17T09:30:55.450Z,37.47
2022-12-17T09:33:40.971Z,36.70
2022-12-17T09:36:27.401Z,33.53
2022-12-17T09:39:14.569Z,32.80
2022-12-17T09:42:36.088Z,33.20
2022-12-17T09:46:16.480Z,31.33
2022-12-17T09:49:30.224Z,37.07
2022-12-17T09:52:15.369Z,37.87
2022-12-17T09:55:08.082Z,40.00
2022-12-17T09:57:56.307Z,34.93
2022-12-17T10:00:45.881Z,37.80
2022-12-17T10:03:38.589Z,39.60
2022-12-17T10:06:37.564Z,34.50
2022-12-17T10:09:32.868Z,34.03
2022-12-17T10:12:37.291Z,31.70
2022-12-17T10:15:24.530Z,33.47
2022-12-17T10:18:10.328Z,33.43
2022-12-17T10:21:17.128Z,34.43
2022-12-17T10:24:02.842Z,33.13
2022-12-17T10:26:52.201Z,35.50
2022-12-17T10:29:48.132Z,35.13
2022-12-17T10:32:33.806Z,34.80
2022-12-17T10:35:27.028Z,35.70
2022-12-17T10:38:12.667Z,34.83
2022-12-17T10:40:57.999Z,35.37
2022-12-17T10:43:51.531Z,35.97
2022-12-17T10:46:50.769Z,34.40
2022-12-17T10:49:42.623Z,35.17
2022-12-17T10:52:49.635Z,34.00
2022-12-17T10:55:46.595Z,32.10
2022-12-17T10:58:42.509Z,34.93
2022-12-17T11:01:59.024Z,32.17
2022-12-17T11:04:52.110Z,32.83
2022-12-17T11:07:50.514Z,33.47
2022-12-17T11:10:43.731Z,33.53
2022-12-17T11:13:46.554Z,33.07
2022-12-17T11:17:05.809Z,33.63
2022-12-17T11:20:06.571Z,31.37
2022-12-17T11:23:13.255Z,32.13
2022-12-17T11:26:23.303Z,30.17
2022-12-17T11:29:08.934Z,30.73
2022-12-17T11:32:48.542Z,30.83
2022-12-17T11:35:44.952Z,30.83
2022-12-17T11:38:45.362Z,29.33
2022-12-17T11:41:42.772Z,30.90
2022-12-17T11:44:50.063Z,30.43
2022-12-17T11:48:06.953Z,30.60
2022-12-17T11:51:00.587Z,29.47
2022-12-17T11:54:09.043Z,31.43
2022-12-17T11:57:03.934Z,30.47
2022-12-17T11:59:58.299Z,31.27
2022-12-17T12:03:32.446Z,29.20
2022-12-17T12:06:22.345Z,29.87
2022-12-17T12:09:41.543Z,30.37
2022-12-17T12:13:00.798Z,29.97
2022-12-17T12:16:26.093Z,29.83
2022-12-17T12:19:34.841Z,29.03
2022-12-17T12:22:57.502Z,28.80
2022-12-17T12:26:15.566Z,28.97
2022-12-17T12:29:16.800Z,28.67
2022-12-17T12:32:23.404Z,28.20
2022-12-17T12:35:11.877Z,27.57
2022-12-17T12:37:58.275Z,27.57
2022-12-17T12:41:00.861Z,29.33
2022-12-17T12:43:54.833Z,29.07
2022-12-17T12:47:17.903Z,29.23
2022-12-17T12:50:14.989Z,29.57
2022-12-17T12:53:00.708Z,29.97
2022-12-17T12:56:01.001Z,29.10
2022-12-17T12:58:50.887Z,29.87
2022-12-17T13:01:38.129Z,29.70
2022-12-17T13:04:52.215Z,27.77
2022-12-17T13:07:29.414Z,29.27
2022-12-17T13:09:59.594Z,29.00
2022-12-17T13:12:45.655Z,29.20
2022-12-17T13:15:27.737Z,29.23
2022-12-17T13:18:14.357Z,30.63
2022-12-17T13:20:41.285Z,29.07
2022-12-17T13:23:38.044Z,29.67
2022-12-17T13:26:40.402Z,29.70
2022-12-17T13:29:33.060Z,29.07
2022-12-17T13:32:08.971Z,29.57
2022-12-17T13:35:10.838Z,30.03
2022-12-17T13:38:07.997Z,29.80
2022-12-17T13:41:13.026Z,30.03
2022-12-17T13:43:48.502Z,28.93
2022-12-17T13:46:22.668Z,29.20
2022-12-17T13:49:04.621Z,29.83
2022-12-17T13:51:36.361Z,29.80
2022-12-17T13:54:04.940Z,31.27
2022-12-17T13:56:35.515Z,32.10
2022-12-17T13:59:09.046Z,29.67
2022-12-17T14:01:47.017Z,29.50
2022-12-17T14:04:40.967Z,29.37
2022-12-17T14:07:07.901Z,29.17
2022-12-17T14:09:40.552Z,29.27
2022-12-17T14:12:23.615Z,29.67
2022-12-17T14:14:58.051Z,28.87
2022-12-17T14:17:27.318Z,30.43
2022-12-17T14:20:07.025Z,30.23
2022-12-17T14:22:38.995Z,29.40
2022-12-17T14:25:15.251Z,30.63
2022-12-17T14:28:04.130Z,31.67
2022-12-17T14:31:17.181Z,28.50
2022-12-17T14:33:33.361Z,31.90
2022-12-17T14:36:07.577Z,30.83
2022-12-17T14:38:48.317Z,29.23
2022-12-17T14:41:34.486Z,31.40
2022-12-17T14:44:03.503Z,29.93
2022-12-17T14:46:33.025Z,31.43
2022-12-17T14:49:04.050Z,30.40
2022-12-17T14:51:41.516Z,29.87
2022-12-17T14:54:15.851Z,28.43
2022-12-17T14:56:44.509Z,29.17
2022-12-17T14:59:47.029Z,32.43
2022-12-17T15:02:26.522Z,34.97
2022-12-17T15:04:59.247Z,32.73
2022-12-17T15:07:29.997Z,27.50
2022-12-17T15:09:58.090Z,31.93
2022-12-17T15:12:25.710Z,32.57
2022-12-17T15:14:53.471Z,30.13
2022-12-17T15:17:20.597Z,33.87
2022-12-17T15:19:54.145Z,38.13
2022-12-17T15:22:23.667Z,32.57
2022-12-17T15:24:50.884Z,33.87
2022-12-17T15:29:17.133Z,35.40
2022-12-17T15:31:44.148Z,84.73
2022-12-17T15:34:12.327Z,66.30
2022-12-17T15:36:40.011Z,65.23
2022-12-17T15:39:07.119Z,104.83
2022-12-17T15:41:53.110Z,70.27
2022-12-17T15:44:20.008Z,57.80
2022-12-17T15:46:47.023Z,71.70
2022-12-17T15:49:14.289Z,46.43
2022-12-17T15:51:41.195Z,52.03
2022-12-17T15:54:08.739Z,60.40
2022-12-17T16:05:00.185Z,57.27
2022-12-17T16:07:27.386Z,44.73
2022-12-17T16:09:54.328Z,41.83
2022-12-17T16:12:21.444Z,43.73
2022-12-17T16:14:49.109Z,36.93
2022-12-17T16:17:16.058Z,34.90
2022-12-17T16:19:43.047Z,36.27
2022-12-17T16:22:10.029Z,34.37
2022-12-17T16:24:40.956Z,36.97
2022-12-17T16:27:08.380Z,35.70
2022-12-17T16:29:35.293Z,36.63
2022-12-17T16:32:02.270Z,35.93
2022-12-17T16:34:32.103Z,36.40
2022-12-17T16:37:00.478Z,37.10
2022-12-17T16:39:27.717Z,38.47
2022-12-17T16:41:54.790Z,37.33
2022-12-17T16:44:21.813Z,39.53
2022-12-17T16:46:48.796Z,38.53
2022-12-17T16:49:19.122Z,39.40
2022-12-17T16:51:51.771Z,40.00
2022-12-17T16:54:22.555Z,39.13
2022-12-17T16:56:50.369Z,39.27
2022-12-17T16:59:18.282Z,37.63
2022-12-17T17:01:48.453Z,38.20
2022-12-17T17:04:17.932Z,38.77
2022-12-17T17:06:51.550Z,39.37
2022-12-17T17:09:19.695Z,37.87
2022-12-17T17:11:51.199Z,39.80
2022-12-17T17:14:19.078Z,41.30
2022-12-17T17:16:46.217Z,41.40
2022-12-17T17:19:13.318Z,39.17
2022-12-17T17:21:42.663Z,38.23
2022-12-17T17:24:20.967Z,40.83
2022-12-17T17:26:50.172Z,40.47
2022-12-17T17:29:17.484Z,40.43
2022-12-17T17:34:31.912Z,40.13
2022-12-17T17:36:58.881Z,41.07
2022-12-17T17:39:25.866Z,40.63
2022-12-17T17:41:52.850Z,38.73
2022-12-17T17:44:19.867Z,43.43
2022-12-17T17:46:46.970Z,44.70
2022-12-17T17:49:14.199Z,42.70
2022-12-17T17:54:30.963Z,41.17
2022-12-17T17:56:58.127Z,42.00
2022-12-17T17:59:31.219Z,44.23
2022-12-17T18:02:01.541Z,41.67
2022-12-17T18:04:28.667Z,42.57
2022-12-17T18:07:24.379Z,42.67
2022-12-17T18:09:42.776Z,41.40
2022-12-17T18:12:28.040Z,42.70
2022-12-17T18:17:45.190Z,42.97
2022-12-17T18:20:13.185Z,43.37
2022-12-17T18:22:40.195Z,45.47
2022-12-17T18:25:07.530Z,43.00
2022-12-17T18:27:34.483Z,42.43
2022-12-17T18:30:01.526Z,42.13
2022-12-17T18:32:28.516Z,42.93
2022-12-17T18:34:55.613Z,43.23
2022-12-17T18:37:22.733Z,42.47
2022-12-17T18:39:49.842Z,40.70
2022-12-17T18:42:35.177Z,41.70
2022-12-17T18:45:02.363Z,44.40
2022-12-17T18:47:29.437Z,44.03
2022-12-17T18:49:57.490Z,47.30
2022-12-17T18:52:24.874Z,43.03
2022-12-17T18:54:51.910Z,41.70
2022-12-17T18:57:18.964Z,41.47
2022-12-17T18:59:45.924Z,42.63
2022-12-17T19:02:14.350Z,42.50
2022-12-17T19:04:41.727Z,41.23
2022-12-17T19:07:08.819Z,40.83
2022-12-17T19:09:36.589Z,42.33
2022-12-17T19:12:09.803Z,39.50
2022-12-17T19:14:37.497Z,40.87
2022-12-17T19:17:06.020Z,40.43
2022-12-17T19:19:33.752Z,39.97
2022-12-17T19:22:02.046Z,38.50
2022-12-17T19:24:29.402Z,39.77
2022-12-17T19:26:56.788Z,36.57
2022-12-17T19:29:23.820Z,38.70
2022-12-17T19:31:50.956Z,43.60
2022-12-17T19:34:19.548Z,44.33
2022-12-17T19:36:46.812Z,43.67
2022-12-17T19:39:18.527Z,40.40
2022-12-17T19:41:45.978Z,40.07
2022-12-17T19:44:16.145Z,40.30
2022-12-17T19:46:43.922Z,39.93
2022-12-17T19:49:15.723Z,39.80
2022-12-17T19:51:44.406Z,42.43
2022-12-17T19:54:17.679Z,42.07
2022-12-17T19:56:45.601Z,40.83
2022-12-17T19:59:13.547Z,42.70
2022-12-17T20:01:46.621Z,41.23
2022-12-17T20:04:16.246Z,38.13
2022-12-17T20:06:44.802Z,40.53
2022-12-17T20:09:12.933Z,39.20
2022-12-17T20:11:40.754Z,39.57
2022-12-17T20:14:26.511Z,39.27
2022-12-17T20:16:57.965Z,38.73
2022-12-17T20:19:31.102Z,40.80
2022-12-17T20:22:04.410Z,41.90
2022-12-17T20:24:32.341Z,42.00
2022-12-17T20:27:00.875Z,40.60
2022-12-17T20:29:28.118Z,41.30
2022-12-17T20:31:55.870Z,43.33
2022-12-17T20:34:23.782Z,40.00
2022-12-17T20:36:52.798Z,38.83
2022-12-17T20:39:25.906Z,42.37
2022-12-17T20:41:53.536Z,41.17
2022-12-17T20:44:20.586Z,41.37
2022-12-17T20:46:47.674Z,39.93
2022-12-17T20:49:14.937Z,40.33
2022-12-17T20:51:42.310Z,36.93
2022-12-17T20:54:10.914Z,36.43
2022-12-17T20:56:40.256Z,36.97
2022-12-17T20:59:14.334Z,36.30
2022-12-17T21:01:41.391Z,35.07
2022-12-17T21:04:08.493Z,37.13
2022-12-17T21:06:42.146Z,39.57
2022-12-17T21:09:09.445Z,36.33
2022-12-17T21:11:38.178Z,37.57
2022-12-17T21:14:12.256Z,36.77
2022-12-17T21:16:40.100Z,36.50
2022-12-17T21:19:09.016Z,36.47
2022-12-17T21:21:38.333Z,39.00
2022-12-17T21:24:07.061Z,37.93
2022-12-17T21:26:40.897Z,37.03
2022-12-17T21:29:09.540Z,38.50
2022-12-17T21:31:43.041Z,37.20
2022-12-17T21:34:22.443Z,37.27
2022-12-17T21:36:50.729Z,35.47
2022-12-17T21:39:18.876Z,38.60
2022-12-17T21:42:08.675Z,41.17
2022-12-17T21:44:36.553Z,39.53
2022-12-17T21:47:03.726Z,38.40
2022-12-17T21:49:30.698Z,40.47
2022-12-17T21:51:59.389Z,39.87
2022-12-17T21:54:26.754Z,37.23
2022-12-17T21:56:53.725Z,39.07
2022-12-17T21:59:20.694Z,42.47
2022-12-17T22:01:48.039Z,39.57
2022-12-17T22:04:15.263Z,38.70
2022-12-17T22:06:46.606Z,40.83
2022-12-17T22:09:27.524Z,37.30
2022-12-17T22:12:26.946Z,37.73
2022-12-17T22:14:53.943Z,37.07
2022-12-17T22:17:21.353Z,38.20
2022-12-17T22:19:48.291Z,37.37
2022-12-17T22:22:15.212Z,34.93
2022-12-17T22:24:42.128Z,35.90
2022-12-17T22:27:09.774Z,35.63
2022-12-17T22:29:58.401Z,37.57
2022-12-17T22:32:43.898Z,35.47
2022-12-17T22:36:14.424Z,36.80
2022-12-17T22:41:44.057Z,38.43
2022-12-17T22:44:34.690Z,37.07
2022-12-17T22:44:51.894Z,36.73
2022-12-17T22:46:25.590Z,36.83
2022-12-17T22:48:54.625Z,35.80
2022-12-17T22:51:23.024Z,38.20
2022-12-17T22:53:52.704Z,37.13
2022-12-17T22:56:51.978Z,36.93
2022-12-17T22:59:08.975Z,34.60
2022-12-17T23:01:39.391Z,38.10
2022-12-17T23:04:06.936Z,37.97
2022-12-17T23:06:34.001Z,35.93
2022-12-17T23:09:01.299Z,34.77
2022-12-17T23:11:31.378Z,35.83
2022-12-17T23:14:03.230Z,36.13
2022-12-17T23:16:30.263Z,36.47
2022-12-17T23:19:00.453Z,36.20
2022-12-17T23:21:27.569Z,35.07
2022-12-17T23:23:56.404Z,32.80
2022-12-17T23:26:33.342Z,34.70
2022-12-17T23:29:07.675Z,34.57
2022-12-17T23:31:38.689Z,32.97
2022-12-17T23:34:10.689Z,34.63
2022-12-17T23:36:37.658Z,34.37
2022-12-17T23:39:06.063Z,35.13
2022-12-17T23:41:34.353Z,33.33
2022-12-17T23:44:08.800Z,32.80
2022-12-17T23:46:38.975Z,33.80
2022-12-17T23:49:10.544Z,33.10
2022-12-17T23:51:40.348Z,33.70
2022-12-17T23:54:07.463Z,33.30
2022-12-17T23:56:36.640Z,33.83
2022-12-17T23:59:04.234Z,33.73
